createdAt,value
2018-02-07T00:00:57.274Z,25.93
2018-02-07T00:02:59.862Z,26.60
2018-02-07T00:05:03.251Z,26.47
2018-02-07T00:07:06.629Z,24.63
2018-02-07T00:09:09.220Z,23.50
2018-02-07T00:11:12.597Z,23.43
2018-02-07T00:13:15.197Z,24.00
2018-02-07T00:15:18.558Z,23.67
2018-02-07T00:17:21.208Z,24.00
2018-02-07T00:19:24.569Z,24.17
2018-02-07T00:21:27.165Z,24.80
2018-02-07T00:23:29.765Z,23.63
2018-02-07T00:25:32.985Z,22.93
2018-02-07T00:27:36.446Z,24.30
2018-02-07T00:29:39.039Z,24.80
2018-02-07T00:31:41.698Z,23.47
2018-02-07T00:33:44.297Z,24.63
2018-02-07T00:35:46.981Z,23.43
2018-02-07T00:37:50.371Z,25.70
2018-02-07T00:39:53.737Z,24.73
2018-02-07T00:41:56.341Z,23.17
2018-02-07T00:43:59.700Z,25.03
2018-02-07T00:46:02.328Z,23.03
2018-02-07T00:48:04.993Z,24.03
2018-02-07T00:50:08.340Z,23.93
2018-02-07T00:52:11.017Z,24.40
2018-02-07T00:54:13.649Z,25.17
2018-02-07T00:56:16.250Z,25.97
2018-02-07T00:58:18.864Z,24.50
2018-02-07T01:00:21.457Z,25.27
2018-02-07T01:02:24.838Z,23.83
2018-02-07T01:04:28.204Z,23.70
2018-02-07T01:06:30.792Z,22.97
2018-02-07T01:08:33.406Z,22.23
2018-02-07T01:10:36.175Z,23.43
2018-02-07T01:12:38.761Z,24.10
2018-02-07T01:14:41.376Z,24.87
2018-02-07T01:16:43.966Z,23.00
2018-02-07T01:18:46.638Z,24.20
2018-02-07T01:20:49.224Z,24.67
2018-02-07T01:22:52.601Z,24.27
2018-02-07T01:24:55.189Z,26.17
2018-02-07T01:26:57.811Z,25.80
2018-02-07T01:29:00.414Z,25.70
2018-02-07T01:31:03.142Z,27.67
2018-02-07T01:33:05.732Z,26.97
2018-02-07T01:35:08.326Z,26.07
2018-02-07T01:37:10.931Z,25.40
2018-02-07T01:39:13.592Z,26.50
2018-02-07T01:41:16.187Z,26.50
2018-02-07T01:43:19.549Z,24.90
2018-02-07T01:45:22.314Z,24.93
2018-02-07T01:47:24.905Z,25.13
2018-02-07T01:49:27.529Z,26.37
2018-02-07T01:51:30.181Z,23.60
2018-02-07T01:53:32.825Z,26.07
2018-02-07T01:55:36.196Z,24.93
2018-02-07T01:57:38.813Z,25.77
2018-02-07T01:59:41.400Z,24.83
2018-02-07T02:01:44.764Z,26.60
2018-02-07T02:03:47.373Z,26.27
2018-02-07T02:05:50.737Z,25.37
2018-02-07T02:07:53.352Z,25.17
2018-02-07T02:09:55.949Z,24.67
2018-02-07T02:11:58.541Z,24.90
2018-02-07T02:14:01.160Z,26.03
2018-02-07T02:16:04.619Z,25.87
2018-02-07T02:18:07.225Z,25.60
2018-02-07T02:20:10.609Z,24.37
2018-02-07T02:22:13.197Z,24.50
2018-02-07T02:24:16.557Z,24.03
2018-02-07T02:26:19.216Z,25.63
2018-02-07T02:28:21.828Z,25.50
2018-02-07T02:30:24.420Z,23.90
2018-02-07T02:32:27.782Z,27.07
2018-02-07T02:34:30.393Z,25.40
2018-02-07T02:36:39.872Z,26.40
2018-02-07T02:38:42.502Z,25.23
2018-02-07T02:40:45.156Z,25.47
2018-02-07T02:42:48.544Z,26.67
2018-02-07T02:44:51.125Z,24.80
2018-02-07T02:46:54.492Z,25.97
2018-02-07T02:48:57.100Z,26.20
2018-02-07T02:51:00.449Z,26.63
2018-02-07T02:53:03.061Z,24.87
2018-02-07T02:55:06.425Z,25.50
2018-02-07T02:57:09.021Z,28.27
2018-02-07T02:59:12.689Z,26.77
2018-02-07T03:01:15.358Z,26.63
2018-02-07T03:03:18.015Z,25.80
2018-02-07T03:05:20.582Z,26.80
2018-02-07T03:07:23.180Z,27.50
2018-02-07T03:09:25.828Z,27.23
2018-02-07T03:11:28.412Z,27.50
2018-02-07T03:13:31.139Z,25.63
2018-02-07T03:15:33.741Z,27.63
2018-02-07T03:17:36.341Z,27.47
2018-02-07T03:19:38.953Z,27.63
2018-02-07T03:21:41.552Z,27.47
2018-02-07T03:23:44.969Z,26.47
2018-02-07T03:25:47.797Z,26.47
2018-02-07T03:27:50.399Z,27.90
2018-02-07T03:29:53.769Z,27.93
2018-02-07T03:31:56.373Z,26.90
2018-02-07T03:33:59.061Z,26.57
2018-02-07T03:36:01.683Z,27.23
2018-02-07T03:38:04.272Z,26.13
2018-02-07T03:40:06.888Z,26.97
2018-02-07T03:42:09.473Z,27.30
2018-02-07T03:44:12.096Z,27.27
2018-02-07T03:46:14.681Z,27.93
2018-02-07T03:48:18.041Z,27.90
2018-02-07T03:50:20.658Z,28.07
2018-02-07T03:52:24.326Z,26.43
2018-02-07T03:54:26.918Z,26.73
2018-02-07T03:56:30.301Z,28.33
2018-02-07T03:58:32.880Z,27.90
2018-02-07T04:00:35.465Z,27.30
2018-02-07T04:02:38.833Z,28.03
2018-02-07T04:04:41.436Z,27.07
2018-02-07T04:06:44.826Z,26.63
2018-02-07T04:08:48.182Z,26.50
2018-02-07T04:10:50.791Z,28.63
2018-02-07T04:12:54.224Z,28.53
2018-02-07T04:14:56.934Z,28.20
2018-02-07T04:16:59.545Z,27.57
2018-02-07T04:19:02.904Z,27.30
2018-02-07T04:21:05.546Z,28.63
2018-02-07T04:23:08.132Z,29.13
2018-02-07T04:25:10.717Z,26.77
2018-02-07T04:27:13.537Z,28.23
2018-02-07T04:29:16.901Z,33.40
2018-02-07T04:31:19.480Z,39.87
2018-02-07T04:33:22.079Z,31.77
2018-02-07T04:35:25.424Z,28.73
2018-02-07T04:37:28.114Z,27.00
2018-02-07T04:39:30.736Z,29.93
2018-02-07T04:41:34.092Z,27.77
2018-02-07T04:43:36.686Z,28.30
2018-02-07T04:45:40.066Z,29.87
2018-02-07T04:47:43.422Z,27.47
2018-02-07T04:49:46.038Z,27.73
2018-02-07T04:51:49.407Z,27.93
2018-02-07T04:53:52.009Z,29.00
2018-02-07T04:55:55.380Z,28.53
2018-02-07T04:57:58.014Z,28.20
2018-02-07T05:00:00.628Z,28.17
2018-02-07T05:02:03.201Z,27.50
2018-02-07T05:04:05.812Z,27.90
2018-02-07T05:06:08.401Z,28.60
2018-02-07T05:08:11.060Z,30.50
2018-02-07T05:10:13.693Z,31.10
2018-02-07T05:12:16.297Z,30.53
2018-02-07T05:14:19.640Z,30.37
2018-02-07T05:16:22.281Z,30.10
2018-02-07T05:18:24.882Z,28.17
2018-02-07T05:20:27.484Z,28.47
2018-02-07T05:22:30.104Z,30.20
2018-02-07T05:24:32.709Z,30.00
2018-02-07T05:26:35.309Z,29.33
2018-02-07T05:28:37.904Z,29.77
2018-02-07T05:30:41.270Z,29.57
2018-02-07T05:32:43.888Z,29.60
2018-02-07T05:34:46.480Z,29.83
2018-02-07T05:36:49.078Z,30.60
2018-02-07T05:38:51.684Z,30.17
2018-02-07T05:40:54.304Z,29.47
2018-02-07T05:42:56.889Z,30.87
2018-02-07T05:44:59.520Z,29.40
2018-02-07T05:47:02.904Z,30.43
2018-02-07T05:49:06.282Z,29.20
2018-02-07T05:51:08.883Z,30.13
2018-02-07T05:53:12.241Z,29.70
2018-02-07T05:55:14.849Z,28.27
2018-02-07T05:57:18.237Z,29.73
2018-02-07T05:59:21.604Z,30.47
2018-02-07T06:01:24.280Z,29.60
2018-02-07T06:03:26.860Z,30.53
2018-02-07T06:05:29.470Z,29.37
2018-02-07T06:07:32.080Z,30.97
2018-02-07T06:09:34.712Z,30.40
2018-02-07T06:11:38.069Z,30.20
2018-02-07T06:13:40.659Z,29.93
2018-02-07T06:15:44.069Z,30.03
2018-02-07T06:17:47.506Z,29.73
2018-02-07T06:19:50.090Z,29.80
2018-02-07T06:21:53.464Z,30.27
2018-02-07T06:23:56.185Z,28.80
2018-02-07T06:25:58.885Z,30.33
2018-02-07T06:28:02.245Z,30.00
2018-02-07T06:30:04.831Z,30.83
2018-02-07T06:32:07.430Z,31.47
2018-02-07T06:34:10.017Z,30.47
2018-02-07T06:36:12.620Z,29.13
2018-02-07T06:38:15.275Z,30.13
2018-02-07T06:40:17.864Z,29.00
2018-02-07T06:42:20.465Z,33.77
2018-02-07T06:44:23.052Z,31.87
2018-02-07T06:46:26.429Z,30.80
2018-02-07T06:48:29.040Z,30.80
2018-02-07T06:50:31.638Z,31.57
2018-02-07T06:52:34.250Z,31.30
2018-02-07T06:54:36.849Z,31.27
2018-02-07T06:56:40.205Z,31.53
2018-02-07T06:58:42.808Z,31.10
2018-02-07T07:00:46.222Z,31.77
2018-02-07T07:02:48.887Z,32.00
2018-02-07T07:04:52.245Z,30.80
2018-02-07T07:06:54.875Z,29.07
2018-02-07T07:08:57.485Z,30.90
2018-02-07T07:11:00.097Z,32.10
2018-02-07T07:13:03.541Z,31.50
2018-02-07T07:15:06.300Z,31.67
2018-02-07T07:17:08.933Z,32.50
2018-02-07T07:19:11.529Z,30.97
2018-02-07T07:21:14.897Z,31.90
2018-02-07T07:23:18.285Z,31.13
2018-02-07T07:25:20.868Z,32.00
2018-02-07T07:27:24.228Z,32.10
2018-02-07T07:29:26.824Z,33.67
2018-02-07T07:31:29.538Z,32.77
2018-02-07T07:33:32.148Z,31.93
2018-02-07T07:35:34.845Z,34.57
2018-02-07T07:37:37.549Z,33.47
2018-02-07T07:39:41.004Z,35.13
2018-02-07T07:41:43.590Z,33.83
2018-02-07T07:43:46.197Z,33.60
2018-02-07T07:45:49.569Z,34.33
2018-02-07T07:47:52.199Z,32.90
2018-02-07T07:49:54.802Z,33.63
2018-02-07T07:51:57.423Z,32.90
2018-02-07T07:54:00.789Z,32.37
2018-02-07T07:56:03.397Z,33.77
2018-02-07T07:58:06.095Z,32.50
2018-02-07T08:00:08.844Z,33.67
2018-02-07T08:02:11.446Z,34.00
2018-02-07T08:04:14.065Z,32.80
2018-02-07T08:06:16.663Z,33.00
2018-02-07T08:08:19.269Z,33.07
2018-02-07T08:10:21.860Z,34.03
2018-02-07T08:12:24.466Z,32.83
2018-02-07T08:14:27.821Z,34.23
2018-02-07T08:16:30.445Z,36.17
2018-02-07T08:18:33.845Z,35.73
2018-02-07T08:20:37.201Z,36.37
2018-02-07T08:22:39.801Z,35.30
2018-02-07T08:24:43.144Z,35.23
2018-02-07T08:26:45.761Z,37.97
2018-02-07T08:28:49.155Z,34.50
2018-02-07T08:30:52.514Z,40.30
2018-02-07T08:32:55.118Z,38.73
2018-02-07T08:34:57.711Z,40.67
2018-02-07T08:37:00.301Z,37.00
2018-02-07T08:39:02.917Z,37.90
2018-02-07T08:41:05.548Z,37.17
2018-02-07T08:43:08.157Z,36.77
2018-02-07T08:45:10.761Z,38.77
2018-02-07T08:47:13.352Z,36.27
2018-02-07T08:49:15.953Z,35.30
2018-02-07T08:51:18.549Z,35.57
2018-02-07T08:53:21.142Z,37.70
2018-02-07T08:55:25.262Z,38.60
2018-02-07T08:57:27.832Z,37.13
2018-02-07T08:59:31.224Z,34.80
2018-02-07T09:01:33.824Z,35.23
2018-02-07T09:03:37.201Z,34.60
2018-02-07T09:05:40.553Z,36.90
2018-02-07T09:07:44.260Z,34.70
2018-02-07T09:09:46.880Z,38.13
2018-02-07T09:11:50.262Z,36.77
2018-02-07T09:13:53.621Z,37.40
2018-02-07T09:15:56.222Z,36.37
2018-02-07T09:17:58.832Z,38.30
2018-02-07T09:20:01.409Z,36.57
2018-02-07T09:22:04.099Z,36.80
2018-02-07T09:24:06.683Z,36.53
2018-02-07T09:26:09.283Z,38.77
2018-02-07T09:28:11.890Z,39.10
2018-02-07T09:30:15.246Z,48.17
2018-02-07T09:32:17.913Z,37.70
2018-02-07T09:34:20.516Z,36.50
2018-02-07T09:36:23.866Z,37.10
2018-02-07T09:38:26.468Z,37.00
2018-02-07T09:40:29.061Z,35.73
2018-02-07T09:42:32.406Z,35.80
2018-02-07T09:44:35.137Z,36.23
2018-02-07T09:46:38.519Z,35.50
2018-02-07T09:48:41.883Z,37.83
2018-02-07T09:50:44.469Z,40.00
2018-02-07T09:52:47.068Z,42.43
2018-02-07T09:54:50.520Z,40.77
2018-02-07T09:56:53.128Z,40.07
2018-02-07T09:58:56.518Z,40.03
2018-02-07T10:00:59.877Z,40.60
2018-02-07T10:03:02.461Z,42.50
2018-02-07T10:05:08.114Z,41.23
2018-02-07T10:07:10.723Z,41.43
2018-02-07T10:09:14.070Z,40.90
2018-02-07T10:11:17.458Z,42.47
2018-02-07T10:13:20.053Z,41.23
2018-02-07T10:15:22.654Z,42.20
2018-02-07T10:17:26.006Z,42.80
2018-02-07T10:19:28.613Z,42.87
2018-02-07T10:21:31.977Z,43.73
2018-02-07T10:23:34.673Z,43.30
2018-02-07T10:25:38.057Z,44.47
2018-02-07T10:27:40.697Z,44.03
2018-02-07T10:29:43.320Z,44.70
2018-02-07T10:31:46.669Z,44.57
2018-02-07T10:33:49.249Z,43.73
2018-02-07T10:35:51.857Z,43.27
2018-02-07T10:37:55.217Z,40.87
2018-02-07T10:39:58.004Z,43.27
2018-02-07T10:42:00.636Z,41.57
2018-02-07T10:44:03.244Z,40.40
2018-02-07T10:46:05.894Z,38.53
2018-02-07T10:48:08.576Z,38.80
2018-02-07T10:50:11.167Z,38.83
2018-02-07T10:52:14.542Z,39.60
2018-02-07T10:54:17.128Z,38.90
2018-02-07T10:56:19.709Z,40.83
2018-02-07T10:58:22.321Z,42.13
2018-02-07T11:00:25.677Z,38.57
2018-02-07T11:02:28.269Z,39.27
2018-02-07T11:04:30.890Z,39.87
2018-02-07T11:06:33.530Z,40.43
2018-02-07T11:08:36.897Z,40.07
2018-02-07T11:10:39.492Z,41.97
2018-02-07T11:12:42.848Z,39.97
2018-02-07T11:14:45.462Z,40.70
2018-02-07T11:16:48.814Z,42.43
2018-02-07T11:18:51.421Z,42.50
2018-02-07T11:20:54.007Z,42.90
2018-02-07T11:22:57.358Z,41.40
2018-02-07T11:24:59.961Z,42.73
2018-02-07T11:27:02.537Z,40.40
2018-02-07T11:29:05.145Z,42.63
2018-02-07T11:31:07.733Z,41.07
2018-02-07T11:33:10.389Z,39.33
2018-02-07T11:35:13.093Z,39.97
2018-02-07T11:37:15.669Z,39.53
2018-02-07T11:39:18.274Z,39.23
2018-02-07T11:41:20.873Z,40.97
2018-02-07T11:43:24.260Z,39.50
2018-02-07T11:45:27.628Z,39.63
2018-02-07T11:47:30.314Z,39.50
2018-02-07T11:49:32.930Z,38.27
2018-02-07T11:51:35.537Z,40.43
2018-02-07T11:53:38.228Z,39.83
2018-02-07T11:55:41.594Z,39.20
2018-02-07T11:57:44.181Z,39.23
2018-02-07T11:59:46.844Z,40.67
2018-02-07T12:01:49.561Z,42.00
2018-02-07T12:03:52.138Z,40.63
2018-02-07T12:05:55.538Z,42.40
2018-02-07T12:07:58.921Z,39.47
2018-02-07T12:10:01.501Z,39.43
2018-02-07T12:12:04.199Z,38.53
2018-02-07T12:14:07.573Z,41.00
2018-02-07T12:16:10.950Z,39.53
2018-02-07T12:18:13.541Z,39.80
2018-02-07T12:20:16.913Z,38.77
2018-02-07T12:22:19.598Z,39.20
2018-02-07T12:24:22.323Z,39.13
2018-02-07T12:26:24.904Z,39.43
2018-02-07T12:28:27.502Z,39.53
2018-02-07T12:30:30.104Z,39.27
2018-02-07T12:32:32.747Z,39.33
2018-02-07T12:34:35.549Z,38.33
2018-02-07T12:36:38.130Z,40.03
2018-02-07T12:38:41.807Z,39.47
2018-02-07T12:40:44.418Z,38.77
2018-02-07T12:42:47.765Z,40.47
2018-02-07T12:44:51.140Z,40.60
2018-02-07T12:46:53.740Z,37.37
2018-02-07T12:48:56.332Z,39.73
2018-02-07T12:51:00.601Z,37.50
2018-02-07T12:53:03.197Z,40.03
2018-02-07T12:55:06.606Z,39.77
2018-02-07T12:57:09.215Z,37.93
2018-02-07T12:59:11.796Z,38.60
2018-02-07T13:01:14.409Z,39.87
2018-02-07T13:03:16.995Z,39.33
2018-02-07T13:05:19.593Z,39.40
2018-02-07T13:07:23.013Z,38.63
2018-02-07T13:09:25.634Z,40.27
2018-02-07T13:11:28.202Z,39.03
2018-02-07T13:13:30.805Z,38.87
2018-02-07T13:15:34.477Z,42.23
2018-02-07T13:17:37.056Z,40.50
2018-02-07T13:19:39.660Z,39.77
2018-02-07T13:21:43.009Z,40.10
2018-02-07T13:23:45.672Z,38.90
2018-02-07T13:25:48.260Z,44.23
2018-02-07T13:27:50.862Z,39.97
2018-02-07T13:29:54.232Z,41.00
2018-02-07T13:31:56.817Z,39.17
2018-02-07T13:33:59.561Z,40.47
2018-02-07T13:36:02.141Z,40.43
2018-02-07T13:38:05.552Z,44.60
2018-02-07T13:40:08.908Z,42.37
2018-02-07T13:42:11.528Z,38.33
2018-02-07T13:44:14.129Z,39.47
2018-02-07T13:46:17.480Z,40.27
2018-02-07T13:48:20.089Z,39.27
2018-02-07T13:50:23.433Z,38.60
2018-02-07T13:52:26.022Z,41.73
2018-02-07T13:54:28.641Z,40.40
2018-02-07T13:56:32.001Z,39.43
2018-02-07T13:58:34.603Z,40.53
2018-02-07T14:00:43.461Z,39.07
2018-02-07T14:02:46.053Z,40.63
2018-02-07T14:04:48.661Z,40.23
2018-02-07T14:06:51.241Z,39.67
2018-02-07T14:08:54.591Z,39.13
2018-02-07T14:10:57.287Z,40.37
2018-02-07T14:12:59.899Z,40.27
2018-02-07T14:15:02.481Z,40.63
2018-02-07T14:17:05.121Z,41.33
2018-02-07T14:19:08.501Z,40.50
2018-02-07T14:21:11.110Z,39.57
2018-02-07T14:23:13.714Z,39.00
2018-02-07T14:25:16.380Z,40.17
2018-02-07T14:27:18.989Z,41.47
2018-02-07T14:29:21.578Z,39.77
2018-02-07T14:31:24.194Z,42.17
2018-02-07T14:33:26.777Z,40.60
2018-02-07T14:35:29.376Z,42.30
2018-02-07T14:37:31.976Z,38.03
2018-02-07T14:39:34.594Z,39.57
2018-02-07T14:41:37.184Z,42.27
2018-02-07T14:43:40.073Z,40.73
2018-02-07T14:45:42.656Z,41.10
2018-02-07T14:47:45.247Z,38.77
2018-02-07T14:49:47.839Z,41.60
2018-02-07T14:51:51.240Z,56.77
2018-02-07T14:53:54.617Z,40.83
2018-02-07T14:55:57.212Z,40.97
2018-02-07T14:58:00.579Z,40.87
2018-02-07T15:00:03.156Z,41.87
2018-02-07T15:02:05.817Z,40.60
2018-02-07T15:04:08.492Z,41.13
2018-02-07T15:06:11.101Z,41.93
2018-02-07T15:08:14.467Z,42.27
2018-02-07T15:10:17.070Z,45.37
2018-02-07T15:12:20.420Z,42.10
2018-02-07T15:14:23.061Z,40.00
2018-02-07T15:16:25.649Z,41.90
2018-02-07T15:18:28.261Z,42.70
2018-02-07T15:20:30.858Z,41.40
2018-02-07T15:22:34.289Z,42.30
2018-02-07T15:24:36.883Z,43.50
2018-02-07T15:26:39.475Z,45.23
2018-02-07T15:28:42.086Z,44.80
2018-02-07T15:30:44.673Z,43.33
2018-02-07T15:32:47.266Z,42.17
2018-02-07T15:34:49.881Z,45.10
2018-02-07T15:36:52.465Z,42.83
2018-02-07T15:38:55.816Z,43.47
2018-02-07T15:40:58.615Z,44.63
2018-02-07T15:43:01.201Z,43.23
2018-02-07T15:45:04.557Z,42.27
2018-02-07T15:47:07.302Z,42.40
2018-02-07T15:49:09.939Z,44.37
2018-02-07T15:51:12.524Z,45.07
2018-02-07T15:53:15.917Z,45.33
2018-02-07T15:55:19.306Z,45.90
2018-02-07T15:57:22.669Z,43.43
2018-02-07T15:59:25.268Z,45.13
2018-02-07T16:01:28.630Z,43.50
2018-02-07T16:03:31.236Z,43.20
2018-02-07T16:05:33.939Z,44.00
2018-02-07T16:07:36.538Z,43.93
2018-02-07T16:09:39.123Z,44.43
2018-02-07T16:11:41.733Z,43.07
2018-02-07T16:13:44.313Z,46.97
2018-02-07T16:15:47.739Z,51.37
2018-02-07T16:17:50.387Z,49.90
2018-02-07T16:19:53.785Z,47.40
2018-02-07T16:21:57.160Z,46.80
2018-02-07T16:23:59.751Z,52.30
2018-02-07T16:26:03.155Z,50.67
2018-02-07T16:28:05.761Z,45.33
2018-02-07T16:30:08.360Z,44.70
2018-02-07T16:32:10.970Z,44.73
2018-02-07T16:34:14.442Z,42.97
2018-02-07T16:36:17.017Z,43.30
2018-02-07T16:38:19.629Z,44.60
2018-02-07T16:40:22.213Z,46.57
2018-02-07T16:42:24.809Z,42.77
2018-02-07T16:44:27.479Z,43.27
2018-02-07T16:46:30.073Z,42.93
2018-02-07T16:48:32.661Z,42.20
2018-02-07T16:50:35.257Z,66.20
2018-02-07T16:52:38.621Z,47.53
2018-02-07T16:54:41.264Z,43.77
2018-02-07T16:56:43.878Z,45.33
2018-02-07T16:58:47.305Z,45.10
2018-02-07T17:00:49.918Z,46.00
2018-02-07T17:02:52.527Z,44.77
2018-02-07T17:04:55.122Z,46.13
2018-02-07T17:06:57.761Z,44.63
2018-02-07T17:09:00.363Z,43.80
2018-02-07T17:11:03.735Z,47.47
2018-02-07T17:13:06.425Z,44.87
2018-02-07T17:15:09.773Z,46.97
2018-02-07T17:17:12.388Z,45.37
2018-02-07T17:19:15.729Z,46.70
2018-02-07T17:21:18.370Z,44.53
2018-02-07T17:23:20.970Z,42.13
2018-02-07T17:25:23.577Z,45.80
2018-02-07T17:27:26.187Z,45.87
2018-02-07T17:29:29.635Z,45.27
2018-02-07T17:31:32.793Z,44.33
2018-02-07T17:33:35.974Z,44.03
2018-02-07T17:35:38.554Z,45.50
2018-02-07T17:37:41.204Z,44.43
2018-02-07T17:39:44.561Z,44.97
2018-02-07T17:41:47.187Z,44.43
2018-02-07T17:43:50.845Z,45.10
2018-02-07T17:45:53.426Z,46.13
2018-02-07T17:47:56.035Z,44.83
2018-02-07T17:49:58.623Z,43.80
2018-02-07T17:52:02.028Z,48.83
2018-02-07T17:54:04.609Z,44.10
2018-02-07T17:56:07.219Z,45.07
2018-02-07T17:58:09.925Z,44.40
2018-02-07T18:00:12.542Z,43.90
2018-02-07T18:02:15.138Z,46.10
2018-02-07T18:04:17.856Z,45.50
2018-02-07T18:06:20.480Z,44.27
2018-02-07T18:08:23.069Z,43.40
2018-02-07T18:10:25.718Z,43.53
2018-02-07T18:12:28.401Z,44.53
2018-02-07T18:14:31.001Z,44.57
2018-02-07T18:16:34.362Z,45.23
2018-02-07T18:18:36.949Z,46.40
2018-02-07T18:20:39.572Z,45.13
2018-02-07T18:22:42.184Z,45.33
2018-02-07T18:24:44.802Z,46.30
2018-02-07T18:26:47.417Z,44.10
2018-02-07T18:28:50.040Z,44.73
2018-02-07T18:30:53.524Z,48.17
2018-02-07T18:32:56.213Z,46.67
2018-02-07T18:34:59.572Z,50.80
2018-02-07T18:37:02.229Z,48.90
2018-02-07T18:39:04.896Z,48.87
2018-02-07T18:41:07.564Z,45.03
2018-02-07T18:43:10.148Z,46.60
2018-02-07T18:45:12.809Z,45.27
2018-02-07T18:47:15.412Z,45.43
2018-02-07T18:49:18.113Z,45.13
2018-02-07T18:51:20.726Z,44.87
2018-02-07T18:53:23.306Z,46.30
2018-02-07T18:55:26.625Z,46.73
2018-02-07T18:57:29.213Z,45.60
2018-02-07T18:59:31.843Z,45.43
2018-02-07T19:01:34.438Z,45.93
2018-02-07T19:03:37.024Z,48.47
2018-02-07T19:05:39.633Z,45.63
2018-02-07T19:07:42.314Z,45.73
2018-02-07T19:09:45.705Z,41.70
2018-02-07T19:11:48.305Z,42.37
2018-02-07T19:13:50.919Z,40.13
2018-02-07T19:15:53.549Z,39.90
2018-02-07T19:17:56.966Z,40.50
2018-02-07T19:19:59.621Z,39.17
2018-02-07T19:22:02.981Z,41.50
2018-02-07T19:24:05.585Z,42.37
2018-02-07T19:26:08.204Z,43.00
2018-02-07T19:28:10.822Z,41.70
2018-02-07T19:30:14.179Z,40.80
2018-02-07T19:32:16.756Z,42.47
2018-02-07T19:34:19.354Z,41.63
2018-02-07T19:36:22.758Z,41.23
2018-02-07T19:38:26.159Z,40.63
2018-02-07T19:40:28.766Z,41.83
2018-02-07T19:42:31.390Z,42.27
2018-02-07T19:44:34.752Z,41.43
2018-02-07T19:46:37.408Z,41.33
2018-02-07T19:48:40.009Z,41.17
2018-02-07T19:50:42.606Z,41.50
2018-02-07T19:52:45.989Z,42.90
2018-02-07T19:54:48.602Z,40.93
2018-02-07T19:56:51.213Z,41.60
2018-02-07T19:58:53.825Z,41.27
2018-02-07T20:00:57.187Z,41.60
2018-02-07T20:03:00.142Z,40.90
2018-02-07T20:05:02.757Z,42.43
2018-02-07T20:07:05.354Z,45.07
2018-02-07T20:09:08.718Z,46.67
2018-02-07T20:11:11.321Z,40.77
2018-02-07T20:13:14.678Z,41.57
2018-02-07T20:15:17.283Z,41.43
2018-02-07T20:17:20.637Z,41.40
2018-02-07T20:19:23.257Z,40.77
2018-02-07T20:21:25.855Z,38.37
2018-02-07T20:23:28.456Z,44.13
2018-02-07T20:25:31.046Z,40.50
2018-02-07T20:27:33.636Z,44.50
2018-02-07T20:29:36.239Z,43.20
2018-02-07T20:31:38.913Z,40.00
2018-02-07T20:33:41.598Z,42.20
2018-02-07T20:35:44.202Z,41.93
2018-02-07T20:37:46.787Z,40.70
2018-02-07T20:39:49.424Z,39.83
2018-02-07T20:41:52.038Z,44.30
2018-02-07T20:43:54.641Z,41.40
2018-02-07T20:45:58.780Z,40.13
2018-02-07T20:48:01.383Z,42.43
2018-02-07T20:50:03.982Z,41.63
2018-02-07T20:52:06.603Z,39.97
2018-02-07T20:54:09.193Z,43.43
2018-02-07T20:56:11.793Z,41.47
2018-02-07T20:58:14.401Z,39.87
2018-02-07T21:00:17.772Z,41.00
2018-02-07T21:02:20.431Z,40.13
2018-02-07T21:04:23.109Z,42.77
2018-02-07T21:06:25.698Z,40.77
2018-02-07T21:08:28.352Z,41.20
2018-02-07T21:10:30.986Z,40.70
2018-02-07T21:12:33.610Z,40.47
2018-02-07T21:14:36.192Z,40.70
2018-02-07T21:16:38.915Z,42.50
2018-02-07T21:18:41.533Z,41.37
2018-02-07T21:20:44.120Z,41.13
2018-02-07T21:22:46.721Z,42.40
2018-02-07T21:24:50.072Z,41.90
2018-02-07T21:26:52.668Z,43.87
2018-02-07T21:28:55.269Z,42.63
2018-02-07T21:30:58.626Z,43.23
2018-02-07T21:33:01.258Z,41.20
2018-02-07T21:35:03.809Z,40.90
2018-02-07T21:37:06.403Z,41.23
2018-02-07T21:39:09.006Z,41.93
2018-02-07T21:41:11.590Z,40.43
2018-02-07T21:43:14.232Z,40.23
2018-02-07T21:45:16.825Z,42.83
2018-02-07T21:47:19.415Z,40.50
2018-02-07T21:49:22.036Z,41.97
2018-02-07T21:51:24.783Z,42.03
2018-02-07T21:53:27.399Z,42.90
2018-02-07T21:55:29.984Z,42.37
2018-02-07T21:57:32.585Z,39.93
2018-02-07T21:59:35.197Z,39.60
2018-02-07T22:01:38.551Z,41.33
2018-02-07T22:03:41.160Z,42.60
2018-02-07T22:05:44.816Z,41.33
2018-02-07T22:07:47.409Z,42.70
2018-02-07T22:09:50.008Z,41.80
2018-02-07T22:11:53.375Z,43.30
2018-02-07T22:13:55.987Z,42.50
2018-02-07T22:15:58.570Z,43.10
2018-02-07T22:18:01.153Z,43.63
2018-02-07T22:20:03.786Z,41.10
2018-02-07T22:22:06.406Z,41.07
2018-02-07T22:24:09.026Z,40.30
2018-02-07T22:26:11.660Z,40.50
2018-02-07T22:28:14.260Z,40.57
2018-02-07T22:30:16.862Z,41.17
2018-02-07T22:32:20.244Z,41.13
2018-02-07T22:34:22.838Z,41.83
2018-02-07T22:36:26.217Z,42.03
2018-02-07T22:38:28.820Z,40.30
2018-02-07T22:40:31.425Z,39.67
2018-02-07T22:42:35.050Z,45.20
2018-02-07T22:44:37.660Z,44.53
2018-02-07T22:46:40.240Z,44.20
2018-02-07T22:48:42.840Z,41.43
2018-02-07T22:50:46.184Z,42.00
2018-02-07T22:52:49.548Z,40.47
2018-02-07T22:54:52.150Z,39.93
2018-02-07T22:56:55.532Z,39.40
2018-02-07T22:58:58.136Z,40.53
2018-02-07T23:01:01.595Z,39.37
2018-02-07T23:03:04.185Z,40.13
2018-02-07T23:05:07.562Z,38.77
2018-02-07T23:07:10.141Z,40.27
2018-02-07T23:09:12.712Z,40.40
2018-02-07T23:11:15.337Z,38.97
2018-02-07T23:13:17.921Z,41.80
2018-02-07T23:15:20.537Z,38.63
2018-02-07T23:17:23.122Z,39.07
2018-02-07T23:19:26.497Z,40.63
2018-02-07T23:21:29.876Z,40.03
2018-02-07T23:23:32.465Z,39.43
2018-02-07T23:25:35.069Z,41.10
2018-02-07T23:27:38.434Z,40.73
2018-02-07T23:29:41.033Z,38.33
2018-02-07T23:31:44.400Z,40.93
2018-02-07T23:33:46.982Z,39.07
2018-02-07T23:35:49.589Z,39.23
2018-02-07T23:37:52.168Z,38.77
2018-02-07T23:39:54.815Z,39.70
2018-02-07T23:41:58.172Z,38.13
2018-02-07T23:44:00.776Z,38.63
2018-02-07T23:46:04.148Z,38.43
2018-02-07T23:48:06.765Z,40.90
2018-02-07T23:50:09.350Z,38.20
2018-02-07T23:52:11.931Z,37.43
2018-02-07T23:54:14.528Z,38.20
2018-02-07T23:56:17.120Z,39.60
2018-02-07T23:58:19.716Z,39.20
